Orr, MN

8:36 PM CDT on May 28, 2017 (GMT -0500)
Orr Regional

Weather History for KORB - November, 2012

Change the Weather History Date:

Sunday, November 18, 2012

  Actual Average Record
Temperature  
Mean Temperature 45 °F -  
Max Temperature 53 °F 30 °F 57 °F (2015)
Min Temperature 37 °F 16 °F 3 °F (2014)
Degree Days  
Heating Degree Days 20    
Moisture  
Dew Point 31 °F    
Average Humidity 59    
Maximum Humidity 70    
Minimum Humidity 38    
Precipitation  
Precipitation 0.00 in - - ()
Sea Level Pressure  
Sea Level Pressure 30.04 in    
Wind  
Wind Speed 7 mph (SE)    
Max Wind Speed 14 mph    
Max Gust Speed 18 mph    
Visibility 10 miles    
Events      
Averages and records for this station are not official NWS values.
T = Trace of Precipitation, MM = Missing Value Source: NWS Daily Summary

Daily Weather History Graph

Daily Weather History Graph

Search for Another Location

Airport or City:

Trip Planner

Search our weather history database for the weather conditions in past years. The results will help you decide how hot, cold, wet, or windy it might be!

Date:

Astronomy

Nov. 18, 2012 Rise Set
Actual Time 7:23 AM CST 4:29 PM CST
Civil Twilight 6:48 AM CST 5:04 PM CST
Nautical Twilight 6:10 AM CST 5:42 PM CST
Astronomical Twilight 5:33 AM CST 6:18 PM CST
Moon 11:45 AM CST (11/18) 9:56 PM CST (11/18)
Length of Visible Light 10h 15m
Length of Day
9h 06m
Waxing Crescent, 30% of the Moon is Illuminated
Nov 18
Waxing Crescent
Nov 20
First Quarter
Nov 28
Full
Dec 6
Last Quarter
Dec 13
New

Hourly Weather History & Observations

Time (CST) Temp. Windchill Dew Point Humidity Pressure Visibility Wind Dir Wind Speed Gust Speed Precip Events Conditions
12:13 AM 44.6 °F 40.7 °F 33.8 °F 66% 30.11 in 10.0 mi SSE 6.9 mph - N/A   Clear
12:33 AM 44.6 °F 40.2 °F 33.8 °F 66% 30.11 in 10.0 mi SSE 8.1 mph - N/A   Scattered Clouds
12:53 AM 44.6 °F 40.2 °F 33.8 °F 66% 30.11 in 10.0 mi SSE 8.1 mph - N/A   Mostly Cloudy
1:13 AM 44.6 °F 41.4 °F 33.8 °F 66% 30.10 in 10.0 mi SSE 5.8 mph - N/A   Mostly Cloudy
1:34 AM 44.6 °F 40.2 °F 33.8 °F 66% 30.10 in 10.0 mi SSE 8.1 mph - N/A   Scattered Clouds
1:54 AM 44.6 °F 39.7 °F 33.8 °F 66% 30.10 in 10.0 mi SSE 9.2 mph - N/A   Scattered Clouds
2:13 AM 44.6 °F 39.7 °F 33.8 °F 66% 30.10 in 10.0 mi SSE 9.2 mph - N/A   Clear
2:33 AM 44.6 °F 40.7 °F 33.8 °F 66% 30.10 in 10.0 mi SSE 6.9 mph - N/A   Scattered Clouds
2:53 AM 44.6 °F 40.7 °F 33.8 °F 66% 30.10 in 10.0 mi SE 6.9 mph - N/A   Clear
3:13 AM 44.6 °F 40.7 °F 33.8 °F 66% 30.09 in 10.0 mi SSE 6.9 mph - N/A   Scattered Clouds
3:33 AM 42.8 °F 38.6 °F 33.8 °F 70% 30.09 in 10.0 mi SSE 6.9 mph - N/A   Scattered Clouds
3:53 AM 42.8 °F 38.0 °F 33.8 °F 70% 30.09 in 10.0 mi SSE 8.1 mph - N/A   Clear
4:14 AM 42.8 °F 38.0 °F 33.8 °F 70% 30.09 in 10.0 mi SE 8.1 mph - N/A   Clear
4:33 AM 42.8 °F 38.6 °F 33.8 °F 70% 30.09 in 10.0 mi SSE 6.9 mph - N/A   Clear
4:53 AM 42.8 °F 38.0 °F 33.8 °F 70% 30.09 in 10.0 mi SSE 8.1 mph - N/A   Clear
5:13 AM 42.8 °F 38.6 °F 33.8 °F 70% 30.09 in 10.0 mi SSE 6.9 mph - N/A   Mostly Cloudy
5:33 AM 44.6 °F 41.4 °F 33.8 °F 66% 30.08 in 10.0 mi SSE 5.8 mph - N/A   Overcast
5:53 AM 44.6 °F 40.2 °F 33.8 °F 66% 30.08 in 10.0 mi SSE 8.1 mph - N/A   Overcast
6:13 AM 44.6 °F 41.4 °F 33.8 °F 66% 30.08 in 10.0 mi SE 5.8 mph - N/A   Mostly Cloudy
6:34 AM 42.8 °F 38.6 °F 33.8 °F 70% 30.08 in 10.0 mi SE 6.9 mph - N/A   Mostly Cloudy
6:53 AM 42.8 °F 37.5 °F 33.8 °F 70% 30.08 in 10.0 mi SE 9.2 mph - N/A   Mostly Cloudy
7:13 AM 42.8 °F 38.6 °F 33.8 °F 70% 30.08 in 10.0 mi SE 6.9 mph - N/A   Mostly Cloudy
7:33 AM 42.8 °F 38.6 °F 32.0 °F 66% 30.08 in 10.0 mi SE 6.9 mph - N/A   Scattered Clouds
7:53 AM 42.8 °F 38.6 °F 32.0 °F 66% 30.08 in 10.0 mi SE 6.9 mph - N/A   Scattered Clouds
8:13 AM 42.8 °F 38.6 °F 32.0 °F 66% 30.07 in 10.0 mi SSE 6.9 mph - N/A   Mostly Cloudy
8:33 AM 44.6 °F 40.7 °F 32.0 °F 61% 30.07 in 10.0 mi SE 6.9 mph - N/A   Mostly Cloudy
8:53 AM 44.6 °F 40.2 °F 30.2 °F 57% 30.07 in 10.0 mi SSE 8.1 mph - N/A   Mostly Cloudy
9:13 AM 44.6 °F 39.2 °F 30.2 °F 57% 30.07 in 10.0 mi SSE 10.4 mph - N/A   Overcast
9:33 AM 44.6 °F 40.7 °F 30.2 °F 57% 30.06 in 10.0 mi SSE 6.9 mph - N/A   Mostly Cloudy
9:53 AM 46.4 °F 41.1 °F 30.2 °F 53% 30.06 in 10.0 mi SSE 11.5 mph - N/A   Scattered Clouds
10:13 AM 46.4 °F 41.9 °F 30.2 °F 53% 30.06 in 10.0 mi SSE 9.2 mph - N/A   Scattered Clouds
10:33 AM 48.2 °F - 30.2 °F 50% 30.06 in 10.0 mi SSE 11.5 mph - N/A   Scattered Clouds
10:53 AM 48.2 °F - 30.2 °F 50% 30.05 in 10.0 mi SSE 11.5 mph 18.4 mph N/A   Clear
11:13 AM 50.0 °F - 30.2 °F 47% 30.04 in 10.0 mi SSE 13.8 mph - N/A   Clear
11:33 AM 50.0 °F - 30.2 °F 47% 30.03 in 10.0 mi South 10.4 mph 16.1 mph N/A   Clear
11:53 AM 51.8 °F - 28.4 °F 41% 30.03 in 10.0 mi SSE 9.2 mph - N/A   Clear
12:13 PM 51.8 °F - 28.4 °F 41% 30.02 in 10.0 mi SSE 9.2 mph - N/A   Clear
12:33 PM 51.8 °F - 28.4 °F 41% 30.01 in 10.0 mi South 10.4 mph - N/A   Clear
12:53 PM 51.8 °F - 28.4 °F 41% 30.01 in 10.0 mi SSE 9.2 mph - N/A   Clear
1:13 PM 51.8 °F - 28.4 °F 41% 30.01 in 10.0 mi SSE 8.1 mph - N/A   Clear
1:33 PM 53.6 °F - 28.4 °F 38% 30.00 in 10.0 mi SE 10.4 mph - N/A   Clear
1:53 PM 53.6 °F - 28.4 °F 38% 30.00 in 10.0 mi SE 8.1 mph - N/A   Clear
2:13 PM 53.6 °F - 28.4 °F 38% 30.00 in 10.0 mi SSE 8.1 mph - N/A   Clear
2:33 PM 53.6 °F - 28.4 °F 38% 29.99 in 10.0 mi SSE 8.1 mph - N/A   Clear
2:55 PM 51.8 °F - 28.4 °F 41% 29.99 in 10.0 mi SSE 9.2 mph - N/A   Clear
3:13 PM 51.8 °F - 28.4 °F 41% 29.99 in 10.0 mi SSE 8.1 mph - N/A   Clear
3:33 PM 51.8 °F - 28.4 °F 41% 29.99 in 10.0 mi SSE 6.9 mph - N/A   Clear
3:53 PM 50.0 °F - 28.4 °F 43% 29.99 in 10.0 mi SSE 6.9 mph - N/A   Clear
4:13 PM 48.2 °F - 28.4 °F 46% 30.00 in 10.0 mi SE 6.9 mph - N/A   Clear
4:33 PM 46.4 °F 44.3 °F 28.4 °F 50% 30.00 in 10.0 mi SE 4.6 mph - N/A   Clear
4:53 PM 46.4 °F 44.3 °F 28.4 °F 50% 30.01 in 10.0 mi SE 4.6 mph - N/A   Clear
5:13 PM 44.6 °F 42.2 °F 28.4 °F 53% 30.01 in 10.0 mi SE 4.6 mph - N/A   Clear
5:33 PM 42.8 °F 40.1 °F 28.4 °F 57% 30.02 in 10.0 mi SE 4.6 mph - N/A   Clear
5:53 PM 44.6 °F 43.1 °F 28.4 °F 53% 30.02 in 10.0 mi ESE 3.5 mph - N/A   Clear
6:13 PM 42.8 °F 41.1 °F 28.4 °F 57% 30.02 in 10.0 mi ESE 3.5 mph - N/A   Clear
6:33 PM 41.0 °F 39.0 °F 28.4 °F 61% 30.02 in 10.0 mi SE 3.5 mph - N/A   Clear
6:53 PM 41.0 °F 37.1 °F 28.4 °F 61% 30.02 in 10.0 mi SE 5.8 mph - N/A   Clear
7:13 PM 41.0 °F 39.0 °F 28.4 °F 61% 30.02 in 10.0 mi ESE 3.5 mph - N/A   Clear
7:33 PM 41.0 °F 39.0 °F 28.4 °F 61% 30.02 in 10.0 mi ESE 3.5 mph - N/A   Clear
7:53 PM 39.2 °F 37.0 °F 28.4 °F 65% 30.01 in 10.0 mi ESE 3.5 mph - N/A   Clear
8:13 PM 39.2 °F 35.0 °F 28.4 °F 65% 30.01 in 10.0 mi SE 5.8 mph - N/A   Clear
8:33 PM 39.2 °F 35.0 °F 28.4 °F 65% 30.01 in 10.0 mi SE 5.8 mph - N/A   Clear
8:53 PM 39.2 °F 35.9 °F 28.4 °F 65% 30.00 in 10.0 mi SE 4.6 mph - N/A   Clear
9:13 PM 39.2 °F 35.9 °F 28.4 °F 65% 30.00 in 10.0 mi SE 4.6 mph - N/A   Clear
9:33 PM 37.4 °F 32.8 °F 28.4 °F 70% 30.00 in 10.0 mi SSE 5.8 mph - N/A   Clear
9:53 PM 39.2 °F 35.9 °F 28.4 °F 65% 30.00 in 10.0 mi SE 4.6 mph - N/A   Clear
10:13 PM 39.2 °F 35.9 °F 28.4 °F 65% 30.00 in 10.0 mi ESE 4.6 mph - N/A   Clear
10:33 PM 37.4 °F 32.8 °F 28.4 °F 70% 29.99 in 10.0 mi SSE 5.8 mph - N/A   Clear
10:53 PM 37.4 °F 32.8 °F 28.4 °F 70% 29.98 in 10.0 mi SSE 5.8 mph - N/A   Clear
11:13 PM 37.4 °F 32.8 °F 28.4 °F 70% 29.98 in 10.0 mi SE 5.8 mph - N/A   Clear
11:53 PM 39.2 °F 34.2 °F 30.2 °F 70% 29.98 in 10.0 mi SE 6.9 mph - N/A   Scattered Clouds